Aeroporto :
LOGIN :

Iscrizione | Disclaimer

   EN    FR    IT 

 










Sommario :    VFR   VFR Marginale   IFR   IFR Intensivo   IFR Molto Intensivo
Visibilità : 
Base nubi : 
>= 8 km
>= 3000ft
5 / 8 km
1000 / 3000 ft
1500m / 5 km
500 / 1000 ft
800 / 1500m
200 / 500 ft
< 800m
< 200 ft
Simboli :   Temporali  Nebbia  Neve Forte  Precipitazioni Forti  Vento > 20 kt
SIGMETs :   Varie  Temporali  Ghiacco  Turbolenza  Onda orograficha  Ceneri Vulcaniche







- Altitudine del aeroporto : 1516 ft
- Codice IATA : AGB


EDMA - Augsburg

ULTIMO METAR :
  • 230920Z 32003KT 250V020 9999 SCT010 20/17 Q1019

METARs OBSOLETI :
  • 230850Z 33005KT 290V350 6000 BKN008 19/17 Q1018
  • 230820Z 32004KT 260V360 5000 BR OVC007 19/17 Q1018
  • 230750Z 31004KT 280V340 6000 OVC006 18/17 Q1018
  • 230720Z 30004KT 260V350 5000 OVC005 18/17 Q1018
  • 230650Z 27004KT 180V290 5000 OVC004 17/16 Q1018

TAF TAF EDMA
Valido dal 23 a 09 ore il 23 a 18 ore UTC


230800Z 2309/2318 30004KT 9999 SCT008 BKN020
TEMPO 2309/2310 BKN006
PROB30
TEMPO 2310/2318 36015G25KT 4000 TSRA BKN020CB
Nessun NOTAM noto per questo aeroporto.



MetMap, La meteo Aeronautica in un colpo d'occhio ! - Copyright ORBIFLY Dicembre 2007 - Disclaimer

ORBIFLY MET'MAP TEAM :

Programmazione e sviluppo : Alexandra Zaïnal
Concezione e sviluppo : Baudouin d'Aumeries
Co-Programmazione e sviluppo : Marc-Olivier Méhu
Supporto tecnico e logistico : Manuel Goepfert
Aiuto per la traduzione : Arnaldo La Scala

Contatto : metmap@orbifly.com




FONTI E CREDITI :

   NOAA